sensor_id;sensor_type;location;lat;lon;timestamp;P1;durP1;ratioP1;P2;durP2;ratioP2
72437;SDS011;60444;43.534;-5.674;2023-12-07T00:00:35;9.67;;;4.00;;
72437;SDS011;60444;43.534;-5.674;2023-12-07T00:03:00;10.43;;;4.30;;
72437;SDS011;60444;43.534;-5.674;2023-12-07T00:05:26;10.63;;;4.17;;
72437;SDS011;60444;43.534;-5.674;2023-12-07T00:07:51;8.93;;;4.03;;
72437;SDS011;60444;43.534;-5.674;2023-12-07T00:10:17;9.70;;;4.27;;
72437;SDS011;60444;43.534;-5.674;2023-12-07T00:12:42;9.53;;;4.33;;
72437;SDS011;60444;43.534;-5.674;2023-12-07T00:15:08;9.77;;;4.50;;
72437;SDS011;60444;43.534;-5.674;2023-12-07T00:17:34;10.13;;;4.43;;
72437;SDS011;60444;43.534;-5.674;2023-12-07T00:20:02;9.98;;;4.25;;
72437;SDS011;60444;43.534;-5.674;2023-12-07T00:22:31;9.60;;;4.47;;
72437;SDS011;60444;43.534;-5.674;2023-12-07T00:24:57;10.55;;;4.18;;
72437;SDS011;60444;43.534;-5.674;2023-12-07T00:27:22;9.83;;;4.60;;
72437;SDS011;60444;43.534;-5.674;2023-12-07T00:29:48;12.23;;;4.73;;
72437;SDS011;60444;43.534;-5.674;2023-12-07T00:32:13;10.40;;;4.55;;
72437;SDS011;60444;43.534;-5.674;2023-12-07T00:34:39;9.53;;;4.10;;
72437;SDS011;60444;43.534;-5.674;2023-12-07T00:37:04;10.90;;;5.37;;
72437;SDS011;60444;43.534;-5.674;2023-12-07T00:39:30;11.43;;;4.82;;
72437;SDS011;60444;43.534;-5.674;2023-12-07T00:41:55;9.17;;;4.30;;
72437;SDS011;60444;43.534;-5.674;2023-12-07T00:44:21;10.67;;;4.57;;
72437;SDS011;60444;43.534;-5.674;2023-12-07T00:46:46;11.40;;;5.35;;
72437;SDS011;60444;43.534;-5.674;2023-12-07T00:49:12;9.80;;;4.27;;
72437;SDS011;60444;43.534;-5.674;2023-12-07T00:51:38;10.40;;;4.27;;
72437;SDS011;60444;43.534;-5.674;2023-12-07T00:54:03;11.30;;;4.25;;
72437;SDS011;60444;43.534;-5.674;2023-12-07T00:56:29;10.47;;;4.27;;
72437;SDS011;60444;43.534;-5.674;2023-12-07T00:58:54;10.80;;;5.13;;
72437;SDS011;60444;43.534;-5.674;2023-12-07T01:01:20;10.45;;;4.40;;
72437;SDS011;60444;43.534;-5.674;2023-12-07T01:03:45;10.47;;;4.63;;
72437;SDS011;60444;43.534;-5.674;2023-12-07T01:06:11;10.87;;;4.50;;
72437;SDS011;60444;43.534;-5.674;2023-12-07T01:08:37;10.18;;;4.18;;
72437;SDS011;60444;43.534;-5.674;2023-12-07T01:11:03;9.77;;;4.55;;
72437;SDS011;60444;43.534;-5.674;2023-12-07T01:13:29;11.63;;;4.70;;
72437;SDS011;60444;43.534;-5.674;2023-12-07T01:15:55;9.95;;;4.43;;
72437;SDS011;60444;43.534;-5.674;2023-12-07T01:18:21;9.73;;;4.27;;
72437;SDS011;60444;43.534;-5.674;2023-12-07T01:20:47;11.68;;;4.68;;
72437;SDS011;60444;43.534;-5.674;2023-12-07T01:23:15;11.20;;;4.82;;
72437;SDS011;60444;43.534;-5.674;2023-12-07T01:25:41;10.97;;;4.40;;
72437;SDS011;60444;43.534;-5.674;2023-12-07T01:28:06;10.73;;;4.90;;
72437;SDS011;60444;43.534;-5.674;2023-12-07T01:30:32;12.23;;;5.27;;
72437;SDS011;60444;43.534;-5.674;2023-12-07T01:32:57;9.83;;;4.63;;
72437;SDS011;60444;43.534;-5.674;2023-12-07T01:35:23;9.40;;;4.13;;
72437;SDS011;60444;43.534;-5.674;2023-12-07T01:37:48;10.33;;;4.37;;
72437;SDS011;60444;43.534;-5.674;2023-12-07T01:40:14;9.63;;;4.68;;
72437;SDS011;60444;43.534;-5.674;2023-12-07T01:42:40;8.90;;;4.20;;
72437;SDS011;60444;43.534;-5.674;2023-12-07T01:45:14;9.50;;;4.67;;
72437;SDS011;60444;43.534;-5.674;2023-12-07T01:47:39;10.88;;;4.07;;
72437;SDS011;60444;43.534;-5.674;2023-12-07T01:50:06;10.48;;;4.78;;
72437;SDS011;60444;43.534;-5.674;2023-12-07T01:52:34;10.40;;;4.40;;
72437;SDS011;60444;43.534;-5.674;2023-12-07T01:55:03;10.13;;;3.42;;
72437;SDS011;60444;43.534;-5.674;2023-12-07T01:57:29;10.52;;;3.95;;
72437;SDS011;60444;43.534;-5.674;2023-12-07T01:59:55;9.10;;;4.20;;
72437;SDS011;60444;43.534;-5.674;2023-12-07T02:02:21;9.57;;;4.50;;
72437;SDS011;60444;43.534;-5.674;2023-12-07T02:04:46;10.00;;;3.92;;
72437;SDS011;60444;43.534;-5.674;2023-12-07T02:07:12;9.90;;;4.00;;
72437;SDS011;60444;43.534;-5.674;2023-12-07T02:09:37;9.93;;;3.80;;
72437;SDS011;60444;43.534;-5.674;2023-12-07T02:12:03;9.52;;;4.15;;
72437;SDS011;60444;43.534;-5.674;2023-12-07T02:14:29;9.57;;;3.83;;
72437;SDS011;60444;43.534;-5.674;2023-12-07T02:16:57;10.27;;;3.97;;
72437;SDS011;60444;43.534;-5.674;2023-12-07T02:22:32;10.13;;;3.87;;
72437;SDS011;60444;43.534;-5.674;2023-12-07T02:30:00;11.37;;;4.37;;
72437;SDS011;60444;43.534;-5.674;2023-12-07T02:32:26;9.97;;;3.77;;
72437;SDS011;60444;43.534;-5.674;2023-12-07T02:34:51;8.43;;;3.10;;
72437;SDS011;60444;43.534;-5.674;2023-12-07T02:37:17;9.03;;;3.70;;
72437;SDS011;60444;43.534;-5.674;2023-12-07T02:39:45;8.48;;;3.55;;
72437;SDS011;60444;43.534;-5.674;2023-12-07T02:42:11;9.93;;;3.57;;
72437;SDS011;60444;43.534;-5.674;2023-12-07T02:44:38;9.30;;;4.28;;
72437;SDS011;60444;43.534;-5.674;2023-12-07T02:47:04;8.90;;;3.67;;
72437;SDS011;60444;43.534;-5.674;2023-12-07T02:49:30;10.98;;;4.32;;
72437;SDS011;60444;43.534;-5.674;2023-12-07T02:51:56;10.23;;;3.87;;
72437;SDS011;60444;43.534;-5.674;2023-12-07T02:54:21;8.60;;;3.30;;
72437;SDS011;60444;43.534;-5.674;2023-12-07T02:56:48;10.05;;;3.55;;
72437;SDS011;60444;43.534;-5.674;2023-12-07T02:59:13;10.63;;;3.83;;
72437;SDS011;60444;43.534;-5.674;2023-12-07T03:01:39;9.20;;;4.07;;
72437;SDS011;60444;43.534;-5.674;2023-12-07T03:04:04;9.47;;;3.70;;
72437;SDS011;60444;43.534;-5.674;2023-12-07T03:06:30;8.85;;;4.35;;
72437;SDS011;60444;43.534;-5.674;2023-12-07T03:08:55;10.87;;;4.10;;
72437;SDS011;60444;43.534;-5.674;2023-12-07T03:11:21;8.50;;;3.57;;
72437;SDS011;60444;43.534;-5.674;2023-12-07T03:13:47;8.57;;;3.47;;
72437;SDS011;60444;43.534;-5.674;2023-12-07T03:16:12;9.33;;;3.60;;
72437;SDS011;60444;43.534;-5.674;2023-12-07T03:18:38;8.48;;;3.50;;
72437;SDS011;60444;43.534;-5.674;2023-12-07T03:21:03;8.47;;;3.23;;
72437;SDS011;60444;43.534;-5.674;2023-12-07T03:23:29;10.10;;;3.80;;
72437;SDS011;60444;43.534;-5.674;2023-12-07T03:25:55;8.77;;;3.40;;
72437;SDS011;60444;43.534;-5.674;2023-12-07T03:28:20;9.03;;;3.63;;
72437;SDS011;60444;43.534;-5.674;2023-12-07T03:30:46;9.27;;;3.57;;
72437;SDS011;60444;43.534;-5.674;2023-12-07T03:33:11;7.95;;;3.03;;
72437;SDS011;60444;43.534;-5.674;2023-12-07T03:35:37;9.10;;;3.97;;
72437;SDS011;60444;43.534;-5.674;2023-12-07T03:38:03;7.37;;;3.47;;
72437;SDS011;60444;43.534;-5.674;2023-12-07T03:40:28;9.73;;;4.00;;
72437;SDS011;60444;43.534;-5.674;2023-12-07T03:42:54;8.50;;;3.87;;
72437;SDS011;60444;43.534;-5.674;2023-12-07T03:45:21;9.38;;;3.97;;
72437;SDS011;60444;43.534;-5.674;2023-12-07T03:47:46;10.57;;;4.17;;
72437;SDS011;60444;43.534;-5.674;2023-12-07T03:50:12;9.90;;;3.75;;
72437;SDS011;60444;43.534;-5.674;2023-12-07T03:52:37;7.30;;;3.10;;
72437;SDS011;60444;43.534;-5.674;2023-12-07T03:55:03;8.13;;;3.00;;
72437;SDS011;60444;43.534;-5.674;2023-12-07T03:57:28;9.13;;;3.75;;
72437;SDS011;60444;43.534;-5.674;2023-12-07T03:59:54;11.33;;;4.23;;
72437;SDS011;60444;43.534;-5.674;2023-12-07T04:02:19;8.20;;;3.42;;
72437;SDS011;60444;43.534;-5.674;2023-12-07T04:04:45;7.57;;;3.20;;
72437;SDS011;60444;43.534;-5.674;2023-12-07T04:07:11;8.05;;;3.47;;
72437;SDS011;60444;43.534;-5.674;2023-12-07T04:09:36;10.00;;;4.10;;
72437;SDS011;60444;43.534;-5.674;2023-12-07T04:12:02;8.43;;;3.40;;
72437;SDS011;60444;43.534;-5.674;2023-12-07T04:14:28;8.52;;;3.75;;
72437;SDS011;60444;43.534;-5.674;2023-12-07T04:16:53;10.17;;;4.07;;
72437;SDS011;60444;43.534;-5.674;2023-12-07T04:19:18;7.83;;;3.33;;
72437;SDS011;60444;43.534;-5.674;2023-12-07T04:21:44;10.57;;;3.70;;
72437;SDS011;60444;43.534;-5.674;2023-12-07T04:24:09;9.63;;;3.53;;
72437;SDS011;60444;43.534;-5.674;2023-12-07T04:26:35;8.97;;;3.17;;
72437;SDS011;60444;43.534;-5.674;2023-12-07T04:29:00;8.37;;;3.20;;
72437;SDS011;60444;43.534;-5.674;2023-12-07T04:31:26;10.10;;;3.50;;
72437;SDS011;60444;43.534;-5.674;2023-12-07T04:33:52;7.80;;;2.80;;
72437;SDS011;60444;43.534;-5.674;2023-12-07T04:36:17;8.70;;;3.27;;
72437;SDS011;60444;43.534;-5.674;2023-12-07T04:38:43;9.55;;;3.13;;
72437;SDS011;60444;43.534;-5.674;2023-12-07T04:41:08;7.97;;;3.03;;
72437;SDS011;60444;43.534;-5.674;2023-12-07T04:43:34;8.27;;;3.47;;
72437;SDS011;60444;43.534;-5.674;2023-12-07T04:45:59;9.55;;;2.90;;
72437;SDS011;60444;43.534;-5.674;2023-12-07T04:48:25;7.40;;;3.10;;
72437;SDS011;60444;43.534;-5.674;2023-12-07T04:50:51;7.25;;;2.83;;
72437;SDS011;60444;43.534;-5.674;2023-12-07T04:53:19;8.15;;;3.25;;
72437;SDS011;60444;43.534;-5.674;2023-12-07T04:55:45;9.57;;;3.60;;
72437;SDS011;60444;43.534;-5.674;2023-12-07T04:58:15;9.30;;;3.00;;
72437;SDS011;60444;43.534;-5.674;2023-12-07T05:00:40;8.80;;;3.10;;
72437;SDS011;60444;43.534;-5.674;2023-12-07T05:03:06;7.27;;;2.90;;
72437;SDS011;60444;43.534;-5.674;2023-12-07T05:05:31;8.80;;;3.25;;
72437;SDS011;60444;43.534;-5.674;2023-12-07T05:07:57;8.37;;;2.93;;
72437;SDS011;60444;43.534;-5.674;2023-12-07T05:10:23;8.67;;;3.17;;
72437;SDS011;60444;43.534;-5.674;2023-12-07T05:12:48;7.93;;;2.72;;
72437;SDS011;60444;43.534;-5.674;2023-12-07T05:15:15;8.15;;;3.50;;
72437;SDS011;60444;43.534;-5.674;2023-12-07T05:17:40;7.70;;;3.03;;
72437;SDS011;60444;43.534;-5.674;2023-12-07T05:20:06;8.73;;;3.53;;
72437;SDS011;60444;43.534;-5.674;2023-12-07T05:22:32;8.43;;;2.83;;
72437;SDS011;60444;43.534;-5.674;2023-12-07T05:24:57;9.70;;;3.13;;
72437;SDS011;60444;43.534;-5.674;2023-12-07T05:27:23;8.50;;;3.37;;
72437;SDS011;60444;43.534;-5.674;2023-12-07T05:29:48;7.60;;;3.27;;
72437;SDS011;60444;43.534;-5.674;2023-12-07T05:32:14;7.37;;;2.80;;
72437;SDS011;60444;43.534;-5.674;2023-12-07T05:34:39;8.63;;;3.65;;
72437;SDS011;60444;43.534;-5.674;2023-12-07T05:37:05;9.50;;;3.10;;
72437;SDS011;60444;43.534;-5.674;2023-12-07T05:39:31;7.80;;;2.88;;
72437;SDS011;60444;43.534;-5.674;2023-12-07T05:41:56;7.80;;;3.00;;
72437;SDS011;60444;43.534;-5.674;2023-12-07T05:44:22;9.03;;;3.47;;
72437;SDS011;60444;43.534;-5.674;2023-12-07T05:46:48;9.68;;;3.30;;
72437;SDS011;60444;43.534;-5.674;2023-12-07T05:49:14;8.15;;;3.13;;
72437;SDS011;60444;43.534;-5.674;2023-12-07T05:51:40;8.30;;;3.17;;
72437;SDS011;60444;43.534;-5.674;2023-12-07T05:54:05;7.65;;;3.17;;
72437;SDS011;60444;43.534;-5.674;2023-12-07T05:56:31;8.60;;;3.40;;
72437;SDS011;60444;43.534;-5.674;2023-12-07T05:58:56;8.60;;;3.10;;
72437;SDS011;60444;43.534;-5.674;2023-12-07T06:01:22;9.00;;;3.22;;
72437;SDS011;60444;43.534;-5.674;2023-12-07T06:03:49;7.80;;;2.90;;
72437;SDS011;60444;43.534;-5.674;2023-12-07T06:06:15;7.88;;;2.97;;
72437;SDS011;60444;43.534;-5.674;2023-12-07T06:08:41;8.95;;;3.03;;
72437;SDS011;60444;43.534;-5.674;2023-12-07T06:11:07;8.93;;;3.07;;
72437;SDS011;60444;43.534;-5.674;2023-12-07T06:13:32;7.40;;;3.05;;
72437;SDS011;60444;43.534;-5.674;2023-12-07T06:15:58;7.95;;;3.00;;
72437;SDS011;60444;43.534;-5.674;2023-12-07T06:18:26;8.93;;;3.60;;
72437;SDS011;60444;43.534;-5.674;2023-12-07T06:20:51;10.15;;;3.15;;
72437;SDS011;60444;43.534;-5.674;2023-12-07T06:23:17;8.63;;;3.20;;
72437;SDS011;60444;43.534;-5.674;2023-12-07T06:25:43;9.18;;;3.53;;
72437;SDS011;60444;43.534;-5.674;2023-12-07T06:28:08;9.07;;;3.30;;
72437;SDS011;60444;43.534;-5.674;2023-12-07T06:30:34;7.30;;;2.90;;
72437;SDS011;60444;43.534;-5.674;2023-12-07T06:33:00;7.67;;;2.87;;
72437;SDS011;60444;43.534;-5.674;2023-12-07T06:35:25;8.63;;;3.30;;
72437;SDS011;60444;43.534;-5.674;2023-12-07T06:37:51;7.07;;;3.15;;
72437;SDS011;60444;43.534;-5.674;2023-12-07T06:40:16;9.23;;;3.43;;
72437;SDS011;60444;43.534;-5.674;2023-12-07T06:42:42;10.50;;;3.40;;
72437;SDS011;60444;43.534;-5.674;2023-12-07T06:45:08;9.37;;;3.77;;
72437;SDS011;60444;43.534;-5.674;2023-12-07T06:47:39;8.00;;;3.20;;
72437;SDS011;60444;43.534;-5.674;2023-12-07T06:50:07;8.98;;;2.90;;
72437;SDS011;60444;43.534;-5.674;2023-12-07T06:52:35;10.97;;;4.40;;
72437;SDS011;60444;43.534;-5.674;2023-12-07T06:55:01;9.65;;;4.03;;
72437;SDS011;60444;43.534;-5.674;2023-12-07T06:57:26;11.40;;;3.92;;
72437;SDS011;60444;43.534;-5.674;2023-12-07T06:59:52;9.70;;;3.30;;
72437;SDS011;60444;43.534;-5.674;2023-12-07T07:02:18;8.75;;;3.00;;
72437;SDS011;60444;43.534;-5.674;2023-12-07T07:04:44;8.53;;;3.17;;
72437;SDS011;60444;43.534;-5.674;2023-12-07T07:07:09;10.47;;;3.10;;
72437;SDS011;60444;43.534;-5.674;2023-12-07T07:09:35;8.45;;;3.00;;
72437;SDS011;60444;43.534;-5.674;2023-12-07T07:12:00;8.20;;;3.20;;
72437;SDS011;60444;43.534;-5.674;2023-12-07T07:14:26;10.00;;;3.60;;
72437;SDS011;60444;43.534;-5.674;2023-12-07T07:16:51;8.57;;;3.08;;
72437;SDS011;60444;43.534;-5.674;2023-12-07T07:19:17;8.17;;;2.90;;
72437;SDS011;60444;43.534;-5.674;2023-12-07T07:21:43;8.98;;;3.45;;
72437;SDS011;60444;43.534;-5.674;2023-12-07T07:24:09;8.10;;;2.50;;
72437;SDS011;60444;43.534;-5.674;2023-12-07T07:26:34;8.27;;;2.97;;
72437;SDS011;60444;43.534;-5.674;2023-12-07T07:29:00;9.03;;;2.80;;
72437;SDS011;60444;43.534;-5.674;2023-12-07T07:31:25;8.60;;;2.45;;
72437;SDS011;60444;43.534;-5.674;2023-12-07T07:33:51;6.60;;;2.60;;
72437;SDS011;60444;43.534;-5.674;2023-12-07T07:36:17;7.27;;;2.53;;
72437;SDS011;60444;43.534;-5.674;2023-12-07T07:38:42;6.57;;;2.30;;
72437;SDS011;60444;43.534;-5.674;2023-12-07T07:41:09;8.77;;;2.37;;
72437;SDS011;60444;43.534;-5.674;2023-12-07T07:43:35;8.98;;;2.25;;
72437;SDS011;60444;43.534;-5.674;2023-12-07T07:46:00;6.83;;;2.30;;
72437;SDS011;60444;43.534;-5.674;2023-12-07T07:48:26;7.10;;;2.07;;
72437;SDS011;60444;43.534;-5.674;2023-12-07T07:50:51;7.97;;;2.47;;
72437;SDS011;60444;43.534;-5.674;2023-12-07T07:53:17;5.68;;;1.98;;
72437;SDS011;60444;43.534;-5.674;2023-12-07T07:55:42;5.33;;;1.20;;
72437;SDS011;60444;43.534;-5.674;2023-12-07T07:58:08;7.10;;;1.70;;
72437;SDS011;60444;43.534;-5.674;2023-12-07T08:00:33;5.80;;;2.00;;
72437;SDS011;60444;43.534;-5.674;2023-12-07T08:02:59;7.80;;;1.20;;
72437;SDS011;60444;43.534;-5.674;2023-12-07T08:05:25;5.65;;;2.05;;
72437;SDS011;60444;43.534;-5.674;2023-12-07T08:07:50;5.20;;;1.20;;
72437;SDS011;60444;43.534;-5.674;2023-12-07T08:10:16;4.25;;;1.30;;
72437;SDS011;60444;43.534;-5.674;2023-12-07T08:12:42;6.80;;;2.17;;
72437;SDS011;60444;43.534;-5.674;2023-12-07T08:15:09;5.72;;;2.10;;
72437;SDS011;60444;43.534;-5.674;2023-12-07T08:17:42;5.03;;;1.58;;
72437;SDS011;60444;43.534;-5.674;2023-12-07T08:20:10;6.93;;;2.28;;
72437;SDS011;60444;43.534;-5.674;2023-12-07T08:22:37;7.47;;;2.30;;
72437;SDS011;60444;43.534;-5.674;2023-12-07T08:25:02;5.45;;;1.38;;
72437;SDS011;60444;43.534;-5.674;2023-12-07T08:27:31;6.03;;;1.75;;
72437;SDS011;60444;43.534;-5.674;2023-12-07T08:29:59;9.52;;;2.10;;
72437;SDS011;60444;43.534;-5.674;2023-12-07T08:32:25;6.78;;;2.00;;
72437;SDS011;60444;43.534;-5.674;2023-12-07T08:34:51;5.97;;;1.30;;
72437;SDS011;60444;43.534;-5.674;2023-12-07T08:37:17;6.70;;;1.95;;
72437;SDS011;60444;43.534;-5.674;2023-12-07T08:39:43;6.20;;;1.77;;
72437;SDS011;60444;43.534;-5.674;2023-12-07T08:42:09;7.03;;;2.00;;
72437;SDS011;60444;43.534;-5.674;2023-12-07T08:44:34;6.40;;;1.60;;
72437;SDS011;60444;43.534;-5.674;2023-12-07T08:47:00;7.65;;;2.00;;
72437;SDS011;60444;43.534;-5.674;2023-12-07T08:49:25;6.53;;;1.93;;
72437;SDS011;60444;43.534;-5.674;2023-12-07T08:51:52;7.22;;;1.60;;
72437;SDS011;60444;43.534;-5.674;2023-12-07T08:54:18;5.97;;;2.00;;
72437;SDS011;60444;43.534;-5.674;2023-12-07T08:56:44;7.50;;;1.85;;
72437;SDS011;60444;43.534;-5.674;2023-12-07T08:59:10;5.57;;;1.50;;
72437;SDS011;60444;43.534;-5.674;2023-12-07T09:01:36;6.23;;;1.40;;
72437;SDS011;60444;43.534;-5.674;2023-12-07T09:04:01;5.68;;;1.60;;
72437;SDS011;60444;43.534;-5.674;2023-12-07T09:06:30;6.33;;;2.07;;
72437;SDS011;60444;43.534;-5.674;2023-12-07T09:08:56;6.22;;;2.08;;
72437;SDS011;60444;43.534;-5.674;2023-12-07T09:11:21;7.40;;;1.87;;
72437;SDS011;60444;43.534;-5.674;2023-12-07T09:13:47;8.50;;;1.43;;
72437;SDS011;60444;43.534;-5.674;2023-12-07T09:16:12;4.70;;;1.08;;
72437;SDS011;60444;43.534;-5.674;2023-12-07T09:18:38;5.70;;;1.33;;
72437;SDS011;60444;43.534;-5.674;2023-12-07T09:21:03;7.73;;;1.20;;
72437;SDS011;60444;43.534;-5.674;2023-12-07T09:23:29;6.82;;;1.25;;
72437;SDS011;60444;43.534;-5.674;2023-12-07T09:25:56;5.97;;;1.40;;
72437;SDS011;60444;43.534;-5.674;2023-12-07T09:28:21;4.60;;;1.20;;
72437;SDS011;60444;43.534;-5.674;2023-12-07T09:30:47;5.17;;;0.90;;
72437;SDS011;60444;43.534;-5.674;2023-12-07T09:33:12;3.38;;;0.82;;
72437;SDS011;60444;43.534;-5.674;2023-12-07T09:35:38;5.00;;;1.07;;
72437;SDS011;60444;43.534;-5.674;2023-12-07T09:38:04;6.30;;;1.40;;
72437;SDS011;60444;43.534;-5.674;2023-12-07T09:40:30;5.90;;;1.50;;
72437;SDS011;60444;43.534;-5.674;2023-12-07T09:42:55;6.30;;;1.40;;
72437;SDS011;60444;43.534;-5.674;2023-12-07T09:45:21;6.07;;;1.30;;
72437;SDS011;60444;43.534;-5.674;2023-12-07T09:47:50;7.05;;;1.50;;
72437;SDS011;60444;43.534;-5.674;2023-12-07T09:50:17;5.03;;;1.63;;
72437;SDS011;60444;43.534;-5.674;2023-12-07T09:52:47;7.07;;;1.27;;
72437;SDS011;60444;43.534;-5.674;2023-12-07T09:55:14;4.60;;;1.45;;
72437;SDS011;60444;43.534;-5.674;2023-12-07T09:57:42;5.60;;;1.13;;
72437;SDS011;60444;43.534;-5.674;2023-12-07T10:00:07;6.63;;;1.50;;
72437;SDS011;60444;43.534;-5.674;2023-12-07T10:02:38;4.22;;;1.00;;
72437;SDS011;60444;43.534;-5.674;2023-12-07T10:05:07;7.45;;;1.20;;
72437;SDS011;60444;43.534;-5.674;2023-12-07T10:07:46;5.10;;;1.00;;
72437;SDS011;60444;43.534;-5.674;2023-12-07T10:10:15;9.38;;;1.60;;
72437;SDS011;60444;43.534;-5.674;2023-12-07T10:12:46;6.78;;;1.70;;
72437;SDS011;60444;43.534;-5.674;2023-12-07T10:15:24;6.65;;;1.00;;
72437;SDS011;60444;43.534;-5.674;2023-12-07T10:17:51;5.47;;;1.30;;
72437;SDS011;60444;43.534;-5.674;2023-12-07T10:20:19;4.87;;;1.20;;
72437;SDS011;60444;43.534;-5.674;2023-12-07T10:22:49;6.28;;;1.30;;
72437;SDS011;60444;43.534;-5.674;2023-12-07T10:25:27;5.32;;;1.42;;
72437;SDS011;60444;43.534;-5.674;2023-12-07T10:27:54;6.28;;;1.48;;
72437;SDS011;60444;43.534;-5.674;2023-12-07T10:30:20;5.28;;;1.20;;
72437;SDS011;60444;43.534;-5.674;2023-12-07T10:32:50;4.77;;;1.33;;
72437;SDS011;60444;43.534;-5.674;2023-12-07T10:35:16;4.05;;;1.02;;
72437;SDS011;60444;43.534;-5.674;2023-12-07T10:37:42;3.97;;;0.80;;
72437;SDS011;60444;43.534;-5.674;2023-12-07T10:40:07;4.57;;;1.37;;
72437;SDS011;60444;43.534;-5.674;2023-12-07T10:42:34;4.65;;;1.08;;
72437;SDS011;60444;43.534;-5.674;2023-12-07T10:45:03;4.97;;;0.90;;
72437;SDS011;60444;43.534;-5.674;2023-12-07T10:47:31;3.97;;;0.80;;
72437;SDS011;60444;43.534;-5.674;2023-12-07T10:50:00;4.90;;;1.08;;
72437;SDS011;60444;43.534;-5.674;2023-12-07T10:52:27;4.45;;;1.02;;
72437;SDS011;60444;43.534;-5.674;2023-12-07T10:57:33;4.67;;;1.10;;
72437;SDS011;60444;43.534;-5.674;2023-12-07T11:00:00;6.57;;;1.40;;
72437;SDS011;60444;43.534;-5.674;2023-12-07T11:02:26;6.32;;;1.80;;
72437;SDS011;60444;43.534;-5.674;2023-12-07T11:04:55;5.00;;;0.90;;
72437;SDS011;60444;43.534;-5.674;2023-12-07T11:07:22;6.10;;;1.45;;
72437;SDS011;60444;43.534;-5.674;2023-12-07T11:09:57;6.13;;;1.20;;
72437;SDS011;60444;43.534;-5.674;2023-12-07T11:12:38;6.82;;;1.30;;
72437;SDS011;60444;43.534;-5.674;2023-12-07T11:15:13;5.85;;;1.52;;
72437;SDS011;60444;43.534;-5.674;2023-12-07T11:17:52;5.72;;;1.00;;
72437;SDS011;60444;43.534;-5.674;2023-12-07T11:20:20;5.80;;;1.50;;
72437;SDS011;60444;43.534;-5.674;2023-12-07T11:22:46;6.73;;;1.37;;
72437;SDS011;60444;43.534;-5.674;2023-12-07T11:25:14;5.55;;;1.50;;
72437;SDS011;60444;43.534;-5.674;2023-12-07T11:27:40;7.22;;;1.52;;
72437;SDS011;60444;43.534;-5.674;2023-12-07T11:30:19;4.68;;;1.00;;
72437;SDS011;60444;43.534;-5.674;2023-12-07T11:32:45;6.57;;;1.17;;
72437;SDS011;60444;43.534;-5.674;2023-12-07T11:35:14;5.63;;;0.97;;
72437;SDS011;60444;43.534;-5.674;2023-12-07T11:40:42;4.90;;;1.20;;
72437;SDS011;60444;43.534;-5.674;2023-12-07T11:43:17;6.60;;;1.25;;
72437;SDS011;60444;43.534;-5.674;2023-12-07T11:45:47;5.10;;;1.15;;
72437;SDS011;60444;43.534;-5.674;2023-12-07T11:48:18;5.17;;;0.90;;
72437;SDS011;60444;43.534;-5.674;2023-12-07T11:50:53;6.55;;;0.90;;
72437;SDS011;60444;43.534;-5.674;2023-12-07T11:53:25;4.43;;;1.02;;
72437;SDS011;60444;43.534;-5.674;2023-12-07T11:55:53;5.83;;;1.00;;
72437;SDS011;60444;43.534;-5.674;2023-12-07T11:58:19;4.80;;;1.00;;
72437;SDS011;60444;43.534;-5.674;2023-12-07T12:00:45;5.88;;;1.13;;
72437;SDS011;60444;43.534;-5.674;2023-12-07T12:03:12;4.85;;;0.88;;
72437;SDS011;60444;43.534;-5.674;2023-12-07T12:05:41;4.13;;;0.87;;
72437;SDS011;60444;43.534;-5.674;2023-12-07T12:08:08;5.93;;;1.20;;
72437;SDS011;60444;43.534;-5.674;2023-12-07T12:10:33;4.50;;;1.30;;
72437;SDS011;60444;43.534;-5.674;2023-12-07T12:13:02;6.07;;;0.90;;
72437;SDS011;60444;43.534;-5.674;2023-12-07T12:15:28;4.60;;;1.05;;
72437;SDS011;60444;43.534;-5.674;2023-12-07T12:17:57;4.32;;;0.98;;
72437;SDS011;60444;43.534;-5.674;2023-12-07T12:20:26;6.37;;;1.40;;
72437;SDS011;60444;43.534;-5.674;2023-12-07T12:22:52;4.85;;;1.60;;
72437;SDS011;60444;43.534;-5.674;2023-12-07T12:25:25;6.45;;;2.33;;
72437;SDS011;60444;43.534;-5.674;2023-12-07T12:27:53;5.32;;;1.92;;
72437;SDS011;60444;43.534;-5.674;2023-12-07T12:30:20;6.47;;;1.63;;
72437;SDS011;60444;43.534;-5.674;2023-12-07T12:32:50;6.77;;;1.90;;
72437;SDS011;60444;43.534;-5.674;2023-12-07T12:35:16;4.68;;;1.10;;
72437;SDS011;60444;43.534;-5.674;2023-12-07T12:37:42;5.43;;;1.13;;
72437;SDS011;60444;43.534;-5.674;2023-12-07T12:40:14;4.60;;;1.20;;
72437;SDS011;60444;43.534;-5.674;2023-12-07T12:42:47;5.78;;;1.35;;
72437;SDS011;60444;43.534;-5.674;2023-12-07T12:45:14;4.90;;;1.37;;
72437;SDS011;60444;43.534;-5.674;2023-12-07T12:47:41;5.32;;;1.20;;
72437;SDS011;60444;43.534;-5.674;2023-12-07T12:50:32;4.88;;;1.30;;
72437;SDS011;60444;43.534;-5.674;2023-12-07T12:53:07;6.40;;;1.67;;
72437;SDS011;60444;43.534;-5.674;2023-12-07T12:55:35;4.65;;;1.20;;
72437;SDS011;60444;43.534;-5.674;2023-12-07T12:58:02;4.53;;;1.00;;
72437;SDS011;60444;43.534;-5.674;2023-12-07T13:00:29;6.55;;;1.58;;
72437;SDS011;60444;43.534;-5.674;2023-12-07T13:02:59;5.20;;;1.00;;
72437;SDS011;60444;43.534;-5.674;2023-12-07T13:05:29;3.45;;;0.88;;
72437;SDS011;60444;43.534;-5.674;2023-12-07T13:07:54;4.83;;;1.20;;
72437;SDS011;60444;43.534;-5.674;2023-12-07T13:10:20;3.93;;;1.00;;
72437;SDS011;60444;43.534;-5.674;2023-12-07T13:12:46;4.90;;;1.27;;
72437;SDS011;60444;43.534;-5.674;2023-12-07T13:15:11;3.78;;;1.10;;
72437;SDS011;60444;43.534;-5.674;2023-12-07T13:17:42;4.10;;;1.10;;
72437;SDS011;60444;43.534;-5.674;2023-12-07T13:20:08;5.28;;;1.30;;
72437;SDS011;60444;43.534;-5.674;2023-12-07T13:22:41;4.60;;;1.27;;
72437;SDS011;60444;43.534;-5.674;2023-12-07T13:25:08;5.75;;;1.00;;
72437;SDS011;60444;43.534;-5.674;2023-12-07T13:27:34;5.57;;;1.23;;
72437;SDS011;60444;43.534;-5.674;2023-12-07T13:30:00;3.87;;;0.90;;
72437;SDS011;60444;43.534;-5.674;2023-12-07T13:32:30;5.10;;;1.02;;
72437;SDS011;60444;43.534;-5.674;2023-12-07T13:34:56;4.13;;;1.00;;
72437;SDS011;60444;43.534;-5.674;2023-12-07T13:37:22;6.03;;;1.27;;
72437;SDS011;60444;43.534;-5.674;2023-12-07T13:39:47;4.20;;;1.00;;
72437;SDS011;60444;43.534;-5.674;2023-12-07T13:42:20;6.20;;;1.57;;
72437;SDS011;60444;43.534;-5.674;2023-12-07T13:44:46;5.03;;;1.08;;
72437;SDS011;60444;43.534;-5.674;2023-12-07T13:47:11;4.67;;;1.10;;
72437;SDS011;60444;43.534;-5.674;2023-12-07T13:49:37;4.63;;;1.00;;
72437;SDS011;60444;43.534;-5.674;2023-12-07T13:52:03;5.43;;;0.93;;
72437;SDS011;60444;43.534;-5.674;2023-12-07T13:54:29;3.88;;;0.75;;
72437;SDS011;60444;43.534;-5.674;2023-12-07T13:56:58;4.60;;;0.95;;
72437;SDS011;60444;43.534;-5.674;2023-12-07T13:59:23;4.93;;;0.93;;
72437;SDS011;60444;43.534;-5.674;2023-12-07T14:01:49;4.40;;;0.90;;
72437;SDS011;60444;43.534;-5.674;2023-12-07T14:04:14;4.20;;;0.90;;
72437;SDS011;60444;43.534;-5.674;2023-12-07T14:06:40;3.70;;;0.80;;
72437;SDS011;60444;43.534;-5.674;2023-12-07T14:09:05;5.63;;;1.40;;
72437;SDS011;60444;43.534;-5.674;2023-12-07T14:11:31;5.53;;;1.30;;
72437;SDS011;60444;43.534;-5.674;2023-12-07T14:13:56;5.90;;;1.00;;
72437;SDS011;60444;43.534;-5.674;2023-12-07T14:16:22;5.80;;;1.27;;
72437;SDS011;60444;43.534;-5.674;2023-12-07T14:18:48;5.43;;;1.27;;
72437;SDS011;60444;43.534;-5.674;2023-12-07T14:21:18;5.70;;;1.47;;
72437;SDS011;60444;43.534;-5.674;2023-12-07T14:23:44;4.97;;;1.70;;
72437;SDS011;60444;43.534;-5.674;2023-12-07T14:26:10;4.67;;;1.33;;
72437;SDS011;60444;43.534;-5.674;2023-12-07T14:28:35;5.40;;;1.40;;
72437;SDS011;60444;43.534;-5.674;2023-12-07T14:31:01;4.20;;;0.80;;
72437;SDS011;60444;43.534;-5.674;2023-12-07T14:33:29;3.90;;;0.63;;
72437;SDS011;60444;43.534;-5.674;2023-12-07T14:35:54;4.37;;;1.03;;
72437;SDS011;60444;43.534;-5.674;2023-12-07T14:38:20;6.38;;;1.30;;
72437;SDS011;60444;43.534;-5.674;2023-12-07T14:40:45;5.37;;;1.47;;
72437;SDS011;60444;43.534;-5.674;2023-12-07T14:43:11;5.33;;;1.33;;